Terminal Aerodrome Forecast
Issued by NWS Des Moines, IA

Home | Current Version | Previous Version | Text Only | Print | Product List | Glossary On
Versions: 1 2 3 4 5 6 7 8 9 10 11 12 13 14 15 16 17 18 19 20 21 22 23 24 25 26 27 28 29 30 31 32 33 34 35 36 37 38 39 40 41 42
027
FTUS43 KDMX 271133
TAFDSM
TAF
KDSM 271133Z 2712/2812 17006KT P6SM FEW010
     FM271500 17008KT P6SM FEW100
     FM280000 13007KT P6SM BKN100
     FM280400 14008KT P6SM VCSH OVC060
     FM280600 16007KT P6SM VCSH OVC020
     FM280900 16006KT 5SM BR OVC015=

USA.gov is the U.S. government's official web portal to all federal, state and local government web resources and services.